sensor_id;sensor_type;location;lat;lon;timestamp;P1;durP1;ratioP1;P2;durP2;ratioP2
10699;SDS011;5401;41.986;21.452;2023-11-21T00:01:41;93.03;;;59.30;;
10699;SDS011;5401;41.986;21.452;2023-11-21T00:04:09;88.30;;;58.33;;
10699;SDS011;5401;41.986;21.452;2023-11-21T00:06:38;90.57;;;57.60;;
10699;SDS011;5401;41.986;21.452;2023-11-21T00:09:06;84.43;;;56.47;;
10699;SDS011;5401;41.986;21.452;2023-11-21T00:11:35;87.13;;;51.50;;
10699;SDS011;5401;41.986;21.452;2023-11-21T00:14:03;84.10;;;53.27;;
10699;SDS011;5401;41.986;21.452;2023-11-21T00:16:31;94.27;;;61.17;;
10699;SDS011;5401;41.986;21.452;2023-11-21T00:18:59;74.57;;;50.83;;
10699;SDS011;5401;41.986;21.452;2023-11-21T00:21:27;82.87;;;51.53;;
10699;SDS011;5401;41.986;21.452;2023-11-21T00:23:56;65.93;;;42.83;;
10699;SDS011;5401;41.986;21.452;2023-11-21T00:26:23;61.60;;;41.80;;
10699;SDS011;5401;41.986;21.452;2023-11-21T00:28:51;62.00;;;42.20;;
10699;SDS011;5401;41.986;21.452;2023-11-21T00:31:18;53.13;;;36.13;;
10699;SDS011;5401;41.986;21.452;2023-11-21T00:33:46;72.23;;;49.07;;
10699;SDS011;5401;41.986;21.452;2023-11-21T00:36:13;78.13;;;51.37;;
10699;SDS011;5401;41.986;21.452;2023-11-21T00:38:41;71.40;;;48.27;;
10699;SDS011;5401;41.986;21.452;2023-11-21T00:41:09;76.40;;;50.13;;
10699;SDS011;5401;41.986;21.452;2023-11-21T00:43:37;65.53;;;44.90;;
10699;SDS011;5401;41.986;21.452;2023-11-21T00:46:05;68.87;;;45.93;;
10699;SDS011;5401;41.986;21.452;2023-11-21T00:48:33;79.60;;;50.80;;
10699;SDS011;5401;41.986;21.452;2023-11-21T00:51:00;71.97;;;47.57;;
10699;SDS011;5401;41.986;21.452;2023-11-21T00:53:28;76.67;;;48.97;;
10699;SDS011;5401;41.986;21.452;2023-11-21T00:55:55;74.23;;;47.57;;
10699;SDS011;5401;41.986;21.452;2023-11-21T00:58:24;81.70;;;50.10;;
10699;SDS011;5401;41.986;21.452;2023-11-21T01:00:52;83.57;;;50.13;;
10699;SDS011;5401;41.986;21.452;2023-11-21T01:03:19;73.50;;;48.63;;
10699;SDS011;5401;41.986;21.452;2023-11-21T01:05:47;82.53;;;52.90;;
10699;SDS011;5401;41.986;21.452;2023-11-21T01:08:15;72.73;;;50.00;;
10699;SDS011;5401;41.986;21.452;2023-11-21T01:10:43;86.87;;;52.13;;
10699;SDS011;5401;41.986;21.452;2023-11-21T01:13:11;79.17;;;51.37;;
10699;SDS011;5401;41.986;21.452;2023-11-21T01:15:42;74.17;;;47.10;;
10699;SDS011;5401;41.986;21.452;2023-11-21T01:18:09;79.23;;;49.53;;
10699;SDS011;5401;41.986;21.452;2023-11-21T01:20:37;73.30;;;52.53;;
10699;SDS011;5401;41.986;21.452;2023-11-21T01:23:05;78.20;;;48.00;;
10699;SDS011;5401;41.986;21.452;2023-11-21T01:25:33;70.70;;;46.10;;
10699;SDS011;5401;41.986;21.452;2023-11-21T01:28:00;74.00;;;49.10;;
10699;SDS011;5401;41.986;21.452;2023-11-21T01:30:28;69.40;;;46.10;;
10699;SDS011;5401;41.986;21.452;2023-11-21T01:32:57;71.27;;;44.53;;
10699;SDS011;5401;41.986;21.452;2023-11-21T01:35:24;68.40;;;42.80;;
10699;SDS011;5401;41.986;21.452;2023-11-21T01:37:52;66.60;;;44.67;;
10699;SDS011;5401;41.986;21.452;2023-11-21T01:40:19;73.67;;;46.27;;
10699;SDS011;5401;41.986;21.452;2023-11-21T01:42:47;71.97;;;46.33;;
10699;SDS011;5401;41.986;21.452;2023-11-21T01:45:14;79.73;;;49.90;;
10699;SDS011;5401;41.986;21.452;2023-11-21T01:47:42;69.37;;;46.77;;
10699;SDS011;5401;41.986;21.452;2023-11-21T01:50:14;79.37;;;49.93;;
10699;SDS011;5401;41.986;21.452;2023-11-21T01:52:44;79.17;;;49.40;;
10699;SDS011;5401;41.986;21.452;2023-11-21T01:55:12;76.83;;;50.93;;
10699;SDS011;5401;41.986;21.452;2023-11-21T01:57:44;78.37;;;50.33;;
10699;SDS011;5401;41.986;21.452;2023-11-21T02:00:12;78.93;;;50.07;;
10699;SDS011;5401;41.986;21.452;2023-11-21T02:02:42;71.60;;;47.70;;
10699;SDS011;5401;41.986;21.452;2023-11-21T02:05:10;72.73;;;48.20;;
10699;SDS011;5401;41.986;21.452;2023-11-21T02:07:40;72.70;;;48.77;;
10699;SDS011;5401;41.986;21.452;2023-11-21T02:10:08;76.90;;;50.40;;
10699;SDS011;5401;41.986;21.452;2023-11-21T02:12:40;80.53;;;51.60;;
10699;SDS011;5401;41.986;21.452;2023-11-21T02:15:08;75.80;;;50.23;;
10699;SDS011;5401;41.986;21.452;2023-11-21T02:17:40;81.23;;;51.07;;
10699;SDS011;5401;41.986;21.452;2023-11-21T02:20:09;77.53;;;50.73;;
10699;SDS011;5401;41.986;21.452;2023-11-21T02:22:42;80.33;;;52.07;;
10699;SDS011;5401;41.986;21.452;2023-11-21T02:25:12;76.27;;;50.57;;
10699;SDS011;5401;41.986;21.452;2023-11-21T02:27:39;82.67;;;50.43;;
10699;SDS011;5401;41.986;21.452;2023-11-21T02:30:07;75.53;;;50.97;;
10699;SDS011;5401;41.986;21.452;2023-11-21T02:32:39;74.00;;;48.73;;
10699;SDS011;5401;41.986;21.452;2023-11-21T02:35:08;75.33;;;49.53;;
10699;SDS011;5401;41.986;21.452;2023-11-21T02:37:38;70.90;;;47.60;;
10699;SDS011;5401;41.986;21.452;2023-11-21T02:40:08;75.27;;;48.40;;
10699;SDS011;5401;41.986;21.452;2023-11-21T02:42:39;75.40;;;48.33;;
10699;SDS011;5401;41.986;21.452;2023-11-21T02:45:07;75.13;;;49.67;;
10699;SDS011;5401;41.986;21.452;2023-11-21T02:47:38;68.43;;;48.73;;
10699;SDS011;5401;41.986;21.452;2023-11-21T02:50:06;73.47;;;50.13;;
10699;SDS011;5401;41.986;21.452;2023-11-21T02:52:34;76.80;;;50.67;;
10699;SDS011;5401;41.986;21.452;2023-11-21T02:55:02;74.53;;;50.80;;
10699;SDS011;5401;41.986;21.452;2023-11-21T02:57:29;78.93;;;51.43;;
10699;SDS011;5401;41.986;21.452;2023-11-21T02:59:58;70.37;;;48.03;;
10699;SDS011;5401;41.986;21.452;2023-11-21T03:02:26;71.07;;;48.13;;
10699;SDS011;5401;41.986;21.452;2023-11-21T03:04:54;68.23;;;45.10;;
10699;SDS011;5401;41.986;21.452;2023-11-21T03:07:21;58.73;;;40.23;;
10699;SDS011;5401;41.986;21.452;2023-11-21T03:09:49;56.73;;;36.53;;
10699;SDS011;5401;41.986;21.452;2023-11-21T03:12:16;53.23;;;36.93;;
10699;SDS011;5401;41.986;21.452;2023-11-21T03:14:44;58.30;;;40.50;;
10699;SDS011;5401;41.986;21.452;2023-11-21T03:17:13;66.83;;;43.67;;
10699;SDS011;5401;41.986;21.452;2023-11-21T03:19:41;69.57;;;43.20;;
10699;SDS011;5401;41.986;21.452;2023-11-21T03:22:08;65.27;;;42.07;;
10699;SDS011;5401;41.986;21.452;2023-11-21T03:24:37;53.03;;;34.70;;
10699;SDS011;5401;41.986;21.452;2023-11-21T03:27:05;63.07;;;41.63;;
10699;SDS011;5401;41.986;21.452;2023-11-21T03:29:32;50.13;;;34.23;;
10699;SDS011;5401;41.986;21.452;2023-11-21T03:32:00;51.10;;;33.23;;
10699;SDS011;5401;41.986;21.452;2023-11-21T03:34:29;48.93;;;33.60;;
10699;SDS011;5401;41.986;21.452;2023-11-21T03:36:56;57.47;;;37.60;;
10699;SDS011;5401;41.986;21.452;2023-11-21T03:39:24;48.97;;;33.97;;
10699;SDS011;5401;41.986;21.452;2023-11-21T03:41:52;51.03;;;35.20;;
10699;SDS011;5401;41.986;21.452;2023-11-21T03:44:21;48.03;;;33.70;;
10699;SDS011;5401;41.986;21.452;2023-11-21T03:46:49;51.03;;;35.40;;
10699;SDS011;5401;41.986;21.452;2023-11-21T03:49:16;58.87;;;40.27;;
10699;SDS011;5401;41.986;21.452;2023-11-21T03:51:45;57.23;;;39.37;;
10699;SDS011;5401;41.986;21.452;2023-11-21T03:54:13;55.30;;;38.60;;
10699;SDS011;5401;41.986;21.452;2023-11-21T03:56:40;65.00;;;40.20;;
10699;SDS011;5401;41.986;21.452;2023-11-21T03:59:07;59.13;;;40.80;;
10699;SDS011;5401;41.986;21.452;2023-11-21T04:01:35;58.63;;;39.13;;
10699;SDS011;5401;41.986;21.452;2023-11-21T04:04:03;61.37;;;38.83;;
10699;SDS011;5401;41.986;21.452;2023-11-21T04:06:31;60.27;;;37.73;;
10699;SDS011;5401;41.986;21.452;2023-11-21T04:09:00;49.43;;;34.50;;
10699;SDS011;5401;41.986;21.452;2023-11-21T04:11:27;52.07;;;34.87;;
10699;SDS011;5401;41.986;21.452;2023-11-21T04:13:55;52.20;;;35.03;;
10699;SDS011;5401;41.986;21.452;2023-11-21T04:16:23;46.03;;;33.27;;
10699;SDS011;5401;41.986;21.452;2023-11-21T04:18:50;43.00;;;31.70;;
10699;SDS011;5401;41.986;21.452;2023-11-21T04:21:18;49.30;;;33.07;;
10699;SDS011;5401;41.986;21.452;2023-11-21T04:23:45;50.40;;;34.13;;
10699;SDS011;5401;41.986;21.452;2023-11-21T04:26:15;48.57;;;32.53;;
10699;SDS011;5401;41.986;21.452;2023-11-21T04:28:43;52.73;;;30.43;;
10699;SDS011;5401;41.986;21.452;2023-11-21T04:31:10;51.80;;;33.13;;
10699;SDS011;5401;41.986;21.452;2023-11-21T04:33:38;47.57;;;32.63;;
10699;SDS011;5401;41.986;21.452;2023-11-21T04:36:05;51.67;;;33.07;;
10699;SDS011;5401;41.986;21.452;2023-11-21T04:38:33;52.37;;;34.87;;
10699;SDS011;5401;41.986;21.452;2023-11-21T04:41:01;48.77;;;34.23;;
10699;SDS011;5401;41.986;21.452;2023-11-21T04:43:30;45.27;;;32.00;;
10699;SDS011;5401;41.986;21.452;2023-11-21T04:45:58;45.73;;;32.47;;
10699;SDS011;5401;41.986;21.452;2023-11-21T04:48:25;46.23;;;32.13;;
10699;SDS011;5401;41.986;21.452;2023-11-21T04:50:53;45.27;;;30.47;;
10699;SDS011;5401;41.986;21.452;2023-11-21T04:53:20;42.37;;;28.17;;
10699;SDS011;5401;41.986;21.452;2023-11-21T04:55:48;44.10;;;27.50;;
10699;SDS011;5401;41.986;21.452;2023-11-21T04:58:17;40.40;;;27.33;;
10699;SDS011;5401;41.986;21.452;2023-11-21T05:00:47;42.60;;;28.40;;
10699;SDS011;5401;41.986;21.452;2023-11-21T05:03:15;42.00;;;27.97;;
10699;SDS011;5401;41.986;21.452;2023-11-21T05:05:43;39.07;;;27.23;;
10699;SDS011;5401;41.986;21.452;2023-11-21T05:08:10;40.10;;;28.43;;
10699;SDS011;5401;41.986;21.452;2023-11-21T05:10:37;43.80;;;28.67;;
10699;SDS011;5401;41.986;21.452;2023-11-21T05:13:05;40.87;;;26.73;;
10699;SDS011;5401;41.986;21.452;2023-11-21T05:15:35;46.57;;;28.47;;
10699;SDS011;5401;41.986;21.452;2023-11-21T05:18:04;38.17;;;28.50;;
10699;SDS011;5401;41.986;21.452;2023-11-21T05:20:32;39.87;;;27.50;;
10699;SDS011;5401;41.986;21.452;2023-11-21T05:22:59;50.77;;;31.10;;
10699;SDS011;5401;41.986;21.452;2023-11-21T05:25:27;43.87;;;27.77;;
10699;SDS011;5401;41.986;21.452;2023-11-21T05:27:54;50.63;;;31.03;;
10699;SDS011;5401;41.986;21.452;2023-11-21T05:30:22;46.33;;;28.67;;
10699;SDS011;5401;41.986;21.452;2023-11-21T05:32:49;43.23;;;29.13;;
10699;SDS011;5401;41.986;21.452;2023-11-21T05:35:20;45.83;;;30.00;;
10699;SDS011;5401;41.986;21.452;2023-11-21T05:37:47;48.07;;;31.47;;
10699;SDS011;5401;41.986;21.452;2023-11-21T05:40:15;43.10;;;27.57;;
10699;SDS011;5401;41.986;21.452;2023-11-21T05:42:43;51.83;;;32.00;;
10699;SDS011;5401;41.986;21.452;2023-11-21T05:45:11;54.47;;;31.47;;
10699;SDS011;5401;41.986;21.452;2023-11-21T05:47:39;48.03;;;31.57;;
10699;SDS011;5401;41.986;21.452;2023-11-21T05:50:08;54.43;;;39.10;;
10699;SDS011;5401;41.986;21.452;2023-11-21T05:52:39;54.63;;;33.50;;
10699;SDS011;5401;41.986;21.452;2023-11-21T05:55:07;49.50;;;31.53;;
10699;SDS011;5401;41.986;21.452;2023-11-21T05:57:35;45.17;;;30.33;;
10699;SDS011;5401;41.986;21.452;2023-11-21T06:00:04;49.40;;;31.20;;
10699;SDS011;5401;41.986;21.452;2023-11-21T06:02:37;47.23;;;29.70;;
10699;SDS011;5401;41.986;21.452;2023-11-21T06:05:05;54.80;;;30.97;;
10699;SDS011;5401;41.986;21.452;2023-11-21T06:07:34;41.13;;;28.97;;
10699;SDS011;5401;41.986;21.452;2023-11-21T06:10:03;42.10;;;28.93;;
10699;SDS011;5401;41.986;21.452;2023-11-21T06:12:34;46.97;;;29.43;;
10699;SDS011;5401;41.986;21.452;2023-11-21T06:15:02;45.83;;;32.27;;
10699;SDS011;5401;41.986;21.452;2023-11-21T06:17:31;45.57;;;30.37;;
10699;SDS011;5401;41.986;21.452;2023-11-21T06:20:01;47.27;;;30.80;;
10699;SDS011;5401;41.986;21.452;2023-11-21T06:22:34;53.60;;;31.50;;
10699;SDS011;5401;41.986;21.452;2023-11-21T06:25:05;47.43;;;30.43;;
10699;SDS011;5401;41.986;21.452;2023-11-21T06:27:34;56.70;;;33.47;;
10699;SDS011;5401;41.986;21.452;2023-11-21T06:30:05;62.50;;;36.07;;
10699;SDS011;5401;41.986;21.452;2023-11-21T06:32:35;60.13;;;36.10;;
10699;SDS011;5401;41.986;21.452;2023-11-21T06:35:02;75.50;;;41.23;;
10699;SDS011;5401;41.986;21.452;2023-11-21T06:37:31;73.97;;;39.03;;
10699;SDS011;5401;41.986;21.452;2023-11-21T06:39:59;46.03;;;30.60;;
10699;SDS011;5401;41.986;21.452;2023-11-21T06:42:31;50.00;;;32.50;;
10699;SDS011;5401;41.986;21.452;2023-11-21T06:44:59;68.20;;;34.47;;
10699;SDS011;5401;41.986;21.452;2023-11-21T06:47:29;50.43;;;32.47;;
10699;SDS011;5401;41.986;21.452;2023-11-21T06:49:57;66.50;;;35.37;;
10699;SDS011;5401;41.986;21.452;2023-11-21T06:52:26;106.57;;;43.20;;
10699;SDS011;5401;41.986;21.452;2023-11-21T06:54:54;70.23;;;36.23;;
10699;SDS011;5401;41.986;21.452;2023-11-21T06:57:22;60.90;;;34.10;;
10699;SDS011;5401;41.986;21.452;2023-11-21T06:59:51;111.73;;;42.93;;
10699;SDS011;5401;41.986;21.452;2023-11-21T07:02:19;72.17;;;35.53;;
10699;SDS011;5401;41.986;21.452;2023-11-21T07:04:46;65.50;;;33.80;;
10699;SDS011;5401;41.986;21.452;2023-11-21T07:07:14;106.13;;;40.70;;
10699;SDS011;5401;41.986;21.452;2023-11-21T07:09:41;56.27;;;31.50;;
10699;SDS011;5401;41.986;21.452;2023-11-21T07:12:09;61.93;;;32.67;;
10699;SDS011;5401;41.986;21.452;2023-11-21T07:14:37;62.00;;;32.90;;
10699;SDS011;5401;41.986;21.452;2023-11-21T07:17:08;58.23;;;32.33;;
10699;SDS011;5401;41.986;21.452;2023-11-21T07:19:35;48.93;;;29.37;;
10699;SDS011;5401;41.986;21.452;2023-11-21T07:22:03;55.43;;;31.63;;
10699;SDS011;5401;41.986;21.452;2023-11-21T07:24:31;77.23;;;38.17;;
10699;SDS011;5401;41.986;21.452;2023-11-21T07:26:59;61.77;;;33.90;;
10699;SDS011;5401;41.986;21.452;2023-11-21T07:29:26;58.77;;;36.57;;
10699;SDS011;5401;41.986;21.452;2023-11-21T07:31:55;66.87;;;36.93;;
10699;SDS011;5401;41.986;21.452;2023-11-21T07:34:24;49.60;;;32.37;;
10699;SDS011;5401;41.986;21.452;2023-11-21T07:36:52;56.80;;;35.77;;
10699;SDS011;5401;41.986;21.452;2023-11-21T07:39:19;67.73;;;37.33;;
10699;SDS011;5401;41.986;21.452;2023-11-21T07:41:46;46.83;;;31.43;;
10699;SDS011;5401;41.986;21.452;2023-11-21T07:44:15;50.87;;;33.63;;
10699;SDS011;5401;41.986;21.452;2023-11-21T07:46:43;54.70;;;34.03;;
10699;SDS011;5401;41.986;21.452;2023-11-21T07:49:11;68.83;;;35.93;;
10699;SDS011;5401;41.986;21.452;2023-11-21T07:51:43;58.50;;;33.90;;
10699;SDS011;5401;41.986;21.452;2023-11-21T07:54:10;57.90;;;34.17;;
10699;SDS011;5401;41.986;21.452;2023-11-21T07:56:38;76.53;;;39.20;;
10699;SDS011;5401;41.986;21.452;2023-11-21T07:59:05;55.70;;;35.63;;
10699;SDS011;5401;41.986;21.452;2023-11-21T08:01:33;61.40;;;38.47;;
10699;SDS011;5401;41.986;21.452;2023-11-21T08:04:00;102.33;;;52.70;;
10699;SDS011;5401;41.986;21.452;2023-11-21T08:06:29;67.47;;;42.43;;
10699;SDS011;5401;41.986;21.452;2023-11-21T08:08:58;65.53;;;43.63;;
10699;SDS011;5401;41.986;21.452;2023-11-21T08:11:26;85.90;;;48.87;;
10699;SDS011;5401;41.986;21.452;2023-11-21T08:13:55;70.00;;;43.07;;
10699;SDS011;5401;41.986;21.452;2023-11-21T08:16:23;65.97;;;42.07;;
10699;SDS011;5401;41.986;21.452;2023-11-21T08:18:50;69.07;;;42.47;;
10699;SDS011;5401;41.986;21.452;2023-11-21T08:21:18;64.93;;;42.77;;
10699;SDS011;5401;41.986;21.452;2023-11-21T08:23:46;56.27;;;40.33;;
10699;SDS011;5401;41.986;21.452;2023-11-21T08:26:21;65.80;;;41.17;;
10699;SDS011;5401;41.986;21.452;2023-11-21T08:28:49;62.33;;;40.30;;
10699;SDS011;5401;41.986;21.452;2023-11-21T08:31:23;59.20;;;38.23;;
10699;SDS011;5401;41.986;21.452;2023-11-21T08:33:51;62.83;;;41.93;;
10699;SDS011;5401;41.986;21.452;2023-11-21T08:36:20;55.40;;;37.53;;
10699;SDS011;5401;41.986;21.452;2023-11-21T08:38:48;63.17;;;39.80;;
10699;SDS011;5401;41.986;21.452;2023-11-21T08:41:17;60.40;;;40.10;;
10699;SDS011;5401;41.986;21.452;2023-11-21T08:43:49;67.90;;;40.17;;
10699;SDS011;5401;41.986;21.452;2023-11-21T08:46:17;65.93;;;37.23;;
10699;SDS011;5401;41.986;21.452;2023-11-21T08:48:44;59.63;;;38.57;;
10699;SDS011;5401;41.986;21.452;2023-11-21T08:51:12;71.63;;;42.57;;
10699;SDS011;5401;41.986;21.452;2023-11-21T08:53:40;68.23;;;40.50;;
10699;SDS011;5401;41.986;21.452;2023-11-21T08:56:11;67.27;;;39.47;;
10699;SDS011;5401;41.986;21.452;2023-11-21T08:58:40;74.67;;;45.67;;
10699;SDS011;5401;41.986;21.452;2023-11-21T09:01:09;70.37;;;39.67;;
10699;SDS011;5401;41.986;21.452;2023-11-21T09:03:37;65.00;;;41.60;;
10699;SDS011;5401;41.986;21.452;2023-11-21T09:06:05;83.67;;;48.30;;
10699;SDS011;5401;41.986;21.452;2023-11-21T09:08:35;67.73;;;44.13;;
10699;SDS011;5401;41.986;21.452;2023-11-21T09:11:03;78.10;;;43.33;;
10699;SDS011;5401;41.986;21.452;2023-11-21T09:13:31;98.87;;;46.93;;
10699;SDS011;5401;41.986;21.452;2023-11-21T09:15:58;75.10;;;42.93;;
10699;SDS011;5401;41.986;21.452;2023-11-21T09:18:27;79.43;;;44.37;;
10699;SDS011;5401;41.986;21.452;2023-11-21T09:20:55;84.87;;;47.03;;
10699;SDS011;5401;41.986;21.452;2023-11-21T09:23:22;77.77;;;43.37;;
10699;SDS011;5401;41.986;21.452;2023-11-21T09:25:50;86.50;;;46.40;;
10699;SDS011;5401;41.986;21.452;2023-11-21T09:28:17;72.63;;;44.30;;
10699;SDS011;5401;41.986;21.452;2023-11-21T09:30:45;84.57;;;49.00;;
10699;SDS011;5401;41.986;21.452;2023-11-21T09:33:12;79.03;;;44.37;;
10699;SDS011;5401;41.986;21.452;2023-11-21T09:35:42;77.70;;;45.13;;
10699;SDS011;5401;41.986;21.452;2023-11-21T09:38:10;100.00;;;51.67;;
10699;SDS011;5401;41.986;21.452;2023-11-21T09:40:38;78.43;;;46.33;;
10699;SDS011;5401;41.986;21.452;2023-11-21T09:43:06;75.73;;;47.60;;
10699;SDS011;5401;41.986;21.452;2023-11-21T09:45:42;90.60;;;51.63;;
10699;SDS011;5401;41.986;21.452;2023-11-21T09:48:12;88.70;;;49.47;;
10699;SDS011;5401;41.986;21.452;2023-11-21T09:50:43;100.87;;;51.23;;
10699;SDS011;5401;41.986;21.452;2023-11-21T09:53:13;121.03;;;58.03;;
10699;SDS011;5401;41.986;21.452;2023-11-21T09:55:47;124.03;;;63.77;;
10699;SDS011;5401;41.986;21.452;2023-11-21T09:58:16;127.90;;;58.53;;
10699;SDS011;5401;41.986;21.452;2023-11-21T10:00:45;138.30;;;62.90;;
10699;SDS011;5401;41.986;21.452;2023-11-21T10:03:13;111.47;;;52.90;;
10699;SDS011;5401;41.986;21.452;2023-11-21T10:05:43;97.97;;;52.37;;
10699;SDS011;5401;41.986;21.452;2023-11-21T10:08:12;135.57;;;61.33;;
10699;SDS011;5401;41.986;21.452;2023-11-21T10:10:42;109.77;;;55.43;;
10699;SDS011;5401;41.986;21.452;2023-11-21T10:13:11;113.00;;;58.07;;
10699;SDS011;5401;41.986;21.452;2023-11-21T10:15:42;141.60;;;65.87;;
10699;SDS011;5401;41.986;21.452;2023-11-21T10:18:14;123.23;;;60.77;;
10699;SDS011;5401;41.986;21.452;2023-11-21T10:20:44;130.47;;;62.67;;
10699;SDS011;5401;41.986;21.452;2023-11-21T10:23:17;123.33;;;61.50;;
10699;SDS011;5401;41.986;21.452;2023-11-21T10:25:47;111.87;;;56.40;;
10699;SDS011;5401;41.986;21.452;2023-11-21T10:28:15;110.33;;;57.67;;
10699;SDS011;5401;41.986;21.452;2023-11-21T10:30:43;110.07;;;56.07;;
10699;SDS011;5401;41.986;21.452;2023-11-21T10:33:11;97.17;;;50.27;;
10699;SDS011;5401;41.986;21.452;2023-11-21T10:35:39;102.23;;;47.77;;
10699;SDS011;5401;41.986;21.452;2023-11-21T10:38:16;101.93;;;50.03;;
10699;SDS011;5401;41.986;21.452;2023-11-21T10:40:44;116.23;;;57.47;;
10699;SDS011;5401;41.986;21.452;2023-11-21T10:43:13;132.07;;;61.60;;
10699;SDS011;5401;41.986;21.452;2023-11-21T10:45:42;132.97;;;63.43;;
10699;SDS011;5401;41.986;21.452;2023-11-21T10:48:10;113.23;;;58.93;;
10699;SDS011;5401;41.986;21.452;2023-11-21T10:50:41;124.87;;;65.53;;
10699;SDS011;5401;41.986;21.452;2023-11-21T10:53:10;168.20;;;76.13;;
10699;SDS011;5401;41.986;21.452;2023-11-21T10:55:38;135.33;;;67.47;;
10699;SDS011;5401;41.986;21.452;2023-11-21T10:58:06;163.23;;;80.63;;
10699;SDS011;5401;41.986;21.452;2023-11-21T11:00:36;142.47;;;73.57;;
10699;SDS011;5401;41.986;21.452;2023-11-21T11:03:06;123.00;;;62.53;;
10699;SDS011;5401;41.986;21.452;2023-11-21T11:05:39;121.17;;;61.83;;
10699;SDS011;5401;41.986;21.452;2023-11-21T11:08:12;125.20;;;64.83;;
10699;SDS011;5401;41.986;21.452;2023-11-21T11:10:44;128.10;;;65.73;;
10699;SDS011;5401;41.986;21.452;2023-11-21T11:13:13;141.13;;;72.30;;
10699;SDS011;5401;41.986;21.452;2023-11-21T11:15:41;143.83;;;68.07;;
10699;SDS011;5401;41.986;21.452;2023-11-21T11:18:11;128.07;;;64.27;;
10699;SDS011;5401;41.986;21.452;2023-11-21T11:20:39;136.73;;;67.57;;
10699;SDS011;5401;41.986;21.452;2023-11-21T11:23:13;136.57;;;63.37;;
10699;SDS011;5401;41.986;21.452;2023-11-21T11:26:04;122.73;;;61.00;;
10699;SDS011;5401;41.986;21.452;2023-11-21T11:28:43;143.23;;;66.50;;
10699;SDS011;5401;41.986;21.452;2023-11-21T11:31:16;238.83;;;137.33;;
10699;SDS011;5401;41.986;21.452;2023-11-21T11:33:56;118.27;;;61.40;;
10699;SDS011;5401;41.986;21.452;2023-11-21T11:36:27;263.10;;;150.23;;
10699;SDS011;5401;41.986;21.452;2023-11-21T11:39:00;233.17;;;119.17;;
10699;SDS011;5401;41.986;21.452;2023-11-21T11:41:30;158.43;;;79.13;;
10699;SDS011;5401;41.986;21.452;2023-11-21T11:44:00;114.87;;;61.40;;
10699;SDS011;5401;41.986;21.452;2023-11-21T11:46:40;380.03;;;229.37;;
10699;SDS011;5401;41.986;21.452;2023-11-21T11:49:08;148.40;;;75.50;;
10699;SDS011;5401;41.986;21.452;2023-11-21T11:51:37;110.53;;;52.90;;
10699;SDS011;5401;41.986;21.452;2023-11-21T11:54:06;129.02;;;61.88;;
10699;SDS011;5401;41.986;21.452;2023-11-21T11:56:33;118.10;;;52.33;;
10699;SDS011;5401;41.986;21.452;2023-11-21T11:59:03;107.63;;;50.40;;
10699;SDS011;5401;41.986;21.452;2023-11-21T12:01:33;128.63;;;55.73;;
10699;SDS011;5401;41.986;21.452;2023-11-21T12:07:01;90.50;;;46.37;;
10699;SDS011;5401;41.986;21.452;2023-11-21T12:09:34;90.27;;;46.33;;
10699;SDS011;5401;41.986;21.452;2023-11-21T12:12:04;99.03;;;48.90;;
10699;SDS011;5401;41.986;21.452;2023-11-21T12:14:32;91.20;;;46.10;;
10699;SDS011;5401;41.986;21.452;2023-11-21T12:17:00;79.33;;;45.33;;
10699;SDS011;5401;41.986;21.452;2023-11-21T12:19:30;92.70;;;45.50;;
10699;SDS011;5401;41.986;21.452;2023-11-21T12:21:58;101.30;;;47.33;;
10699;SDS011;5401;41.986;21.452;2023-11-21T12:24:26;116.03;;;66.23;;
10699;SDS011;5401;41.986;21.452;2023-11-21T12:26:56;135.23;;;71.13;;
10699;SDS011;5401;41.986;21.452;2023-11-21T12:29:24;231.13;;;127.67;;
10699;SDS011;5401;41.986;21.452;2023-11-21T12:31:51;95.30;;;45.90;;
10699;SDS011;5401;41.986;21.452;2023-11-21T12:34:19;79.33;;;40.67;;
10699;SDS011;5401;41.986;21.452;2023-11-21T12:36:47;104.33;;;48.77;;
10699;SDS011;5401;41.986;21.452;2023-11-21T12:39:15;79.13;;;39.57;;
10699;SDS011;5401;41.986;21.452;2023-11-21T12:41:43;70.83;;;35.23;;
10699;SDS011;5401;41.986;21.452;2023-11-21T12:44:13;90.40;;;44.30;;
10699;SDS011;5401;41.986;21.452;2023-11-21T12:46:42;72.27;;;36.83;;
10699;SDS011;5401;41.986;21.452;2023-11-21T12:49:11;66.50;;;33.33;;
10699;SDS011;5401;41.986;21.452;2023-11-21T12:51:43;88.20;;;40.97;;
10699;SDS011;5401;41.986;21.452;2023-11-21T12:54:12;61.87;;;33.47;;
10699;SDS011;5401;41.986;21.452;2023-11-21T12:56:39;61.90;;;34.10;;
10699;SDS011;5401;41.986;21.452;2023-11-21T12:59:07;84.17;;;38.97;;
10699;SDS011;5401;41.986;21.452;2023-11-21T13:01:42;58.50;;;32.73;;
10699;SDS011;5401;41.986;21.452;2023-11-21T13:04:10;59.37;;;33.40;;
10699;SDS011;5401;41.986;21.452;2023-11-21T13:06:38;77.67;;;38.00;;
10699;SDS011;5401;41.986;21.452;2023-11-21T13:09:06;46.13;;;27.27;;
10699;SDS011;5401;41.986;21.452;2023-11-21T13:11:36;50.23;;;30.83;;
10699;SDS011;5401;41.986;21.452;2023-11-21T13:14:06;59.43;;;32.97;;
10699;SDS011;5401;41.986;21.452;2023-11-21T13:16:36;45.47;;;28.87;;
10699;SDS011;5401;41.986;21.452;2023-11-21T13:19:06;54.93;;;32.43;;
10699;SDS011;5401;41.986;21.452;2023-11-21T13:21:34;65.70;;;35.17;;
10699;SDS011;5401;41.986;21.452;2023-11-21T13:24:02;51.80;;;29.73;;
10699;SDS011;5401;41.986;21.452;2023-11-21T13:26:30;49.47;;;27.97;;
10699;SDS011;5401;41.986;21.452;2023-11-21T13:29:00;53.30;;;29.73;;
10699;SDS011;5401;41.986;21.452;2023-11-21T13:31:30;46.67;;;28.27;;
10699;SDS011;5401;41.986;21.452;2023-11-21T13:34:00;42.47;;;26.27;;
10699;SDS011;5401;41.986;21.452;2023-11-21T13:36:32;51.67;;;28.87;;
10699;SDS011;5401;41.986;21.452;2023-11-21T13:39:01;44.90;;;26.20;;
10699;SDS011;5401;41.986;21.452;2023-11-21T13:41:33;47.77;;;25.70;;
10699;SDS011;5401;41.986;21.452;2023-11-21T13:44:00;53.27;;;28.80;;
10699;SDS011;5401;41.986;21.452;2023-11-21T13:46:41;62.83;;;29.27;;
10699;SDS011;5401;41.986;21.452;2023-11-21T13:49:09;50.50;;;27.60;;
10699;SDS011;5401;41.986;21.452;2023-11-21T13:51:38;65.90;;;29.43;;
10699;SDS011;5401;41.986;21.452;2023-11-21T13:54:10;37.63;;;19.67;;
10699;SDS011;5401;41.986;21.452;2023-11-21T13:56:37;32.37;;;19.57;;
10699;SDS011;5401;41.986;21.452;2023-11-21T13:59:06;46.97;;;25.37;;
10699;SDS011;5401;41.986;21.452;2023-11-21T14:01:44;26.37;;;17.80;;
10699;SDS011;5401;41.986;21.452;2023-11-21T14:04:22;39.43;;;22.17;;
10699;SDS011;5401;41.986;21.452;2023-11-21T14:07:06;29.17;;;17.87;;
10699;SDS011;5401;41.986;21.452;2023-11-21T14:09:48;50.87;;;24.67;;
10699;SDS011;5401;41.986;21.452;2023-11-21T14:12:16;32.00;;;18.10;;
10699;SDS011;5401;41.986;21.452;2023-11-21T14:14:43;32.90;;;18.87;;
10699;SDS011;5401;41.986;21.452;2023-11-21T14:17:13;50.30;;;24.57;;
10699;SDS011;5401;41.986;21.452;2023-11-21T14:19:39;31.57;;;18.43;;
10699;SDS011;5401;41.986;21.452;2023-11-21T14:22:10;28.37;;;19.00;;
10699;SDS011;5401;41.986;21.452;2023-11-21T14:24:39;35.83;;;21.20;;
10699;SDS011;5401;41.986;21.452;2023-11-21T14:27:11;34.07;;;20.33;;
10699;SDS011;5401;41.986;21.452;2023-11-21T14:29:38;34.80;;;21.27;;
10699;SDS011;5401;41.986;21.452;2023-11-21T14:32:10;50.83;;;26.00;;